Anaktuvuk Pass, Alaska
Current Conditions -  °F | °C
As of 12:53 PM on Sunday 21 Dec 2014 (Local Time) from PABT Reporting Station
Broken Clouds Broken Clouds  
Wind Chill: -13°   Ceiling: 14000
Heat Index:   Visibility: 10mi
Dew Point: -4°   Wind: 7mph
Humidity: 83%   Direction: 20°NNE
Pressure: 29.39"   Gusts: NA
Location:  68.14°N, 151.74°W
Report Text: PABT 212153Z 02006KT 10SM SCT080 BKN140 M18/M20 A2939 RMK AO2 SLP975 T11781200
Loading
Personal Weather Stations






























Interactive Weather Map New forecast layout! Learn more

10-Day Weather Forecast

Advertisements
Track Severe Weather on mobile